Time;durP1;ratioP1;P1;durP2;ratioP2;P2;SDS_P1;SDS_P2;PMS_P1;PMS_P2;Temp;Humidity;BMP_temperature;BMP_pressure;BME280_temperature;BME280_humidity;BME280_pressure;Samples;Min_cycle;Max_cycle;Signal;HPM_P1;HPM_P2
2021/12/15 00:01:41;;;;;;;19.13;4.50;;;;;;;;;;4976340;28;20299;-30
2021/12/15 00:04:07;;;;;;;31.77;5.18;;;;;;;;;;4976236;28;20077;-30
2021/12/15 00:06:33;;;;;;;28.25;4.32;;;;;;;;;;4976606;28;20052;-30
2021/12/15 00:09:01;;;;;;;25.67;5.30;;;;;;;;;;4976202;28;20029;-31
2021/12/15 00:11:34;;;;;;;21.65;4.63;;;;;;;;;;4976231;28;20357;-30
2021/12/15 00:14:01;;;;;;;42.20;6.72;;;;;;;;;;4976108;28;20035;-30
2021/12/15 00:16:28;;;;;;;25.58;5.97;;;;;;;;;;4975746;28;20429;-30
2021/12/15 00:18:54;;;;;;;30.92;4.28;;;;;;;;;;4976063;28;20027;-30
2021/12/15 00:21:21;;;;;;;33.97;4.68;;;;;;;;;;4976256;28;20038;-30
2021/12/15 00:23:47;;;;;;;25.38;5.28;;;;;;;;;;4959009;28;20065;-29
2021/12/15 00:26:14;;;;;;;29.48;5.93;;;;;;;;;;4976020;28;20051;-30
2021/12/15 00:28:42;;;;;;;23.10;4.63;;;;;;;;;;4976047;28;20377;-30
2021/12/15 00:31:08;;;;;;;20.83;4.00;;;;;;;;;;4975882;28;20054;-30
2021/12/15 00:33:35;;;;;;;27.55;4.40;;;;;;;;;;4975869;28;20366;-30
2021/12/15 00:36:01;;;;;;;30.35;4.47;;;;;;;;;;4976670;28;20038;-29
2021/12/15 00:38:28;;;;;;;24.08;5.57;;;;;;;;;;4958838;28;20522;-30
2021/12/15 00:40:55;;;;;;;12.45;3.65;;;;;;;;;;4975767;28;20450;-30
2021/12/15 00:43:21;;;;;;;18.27;4.22;;;;;;;;;;4958742;28;20031;-31
2021/12/15 00:45:48;;;;;;;26.98;5.25;;;;;;;;;;4958574;28;20043;-30
2021/12/15 00:48:15;;;;;;;22.10;4.20;;;;;;;;;;4975714;28;20038;-29
2021/12/15 00:50:43;;;;;;;22.15;4.53;;;;;;;;;;4958680;28;20061;-29
2021/12/15 00:53:09;;;;;;;23.45;6.10;;;;;;;;;;4975915;28;20328;-30
2021/12/15 00:55:36;;;;;;;21.30;4.78;;;;;;;;;;4975945;28;20058;-30
2021/12/15 00:58:03;;;;;;;24.45;4.03;;;;;;;;;;4958653;28;20053;-30
2021/12/15 01:00:34;;;;;;;20.60;3.83;;;;;;;;;;4975541;28;20031;-30
2021/12/15 01:03:01;;;;;;;23.90;5.28;;;;;;;;;;4975733;28;20057;-30
2021/12/15 01:05:31;;;;;;;21.52;4.68;;;;;;;;;;4958607;28;20026;-30
2021/12/15 01:07:57;;;;;;;35.20;5.53;;;;;;;;;;4976064;28;20342;-30
2021/12/15 01:10:31;;;;;;;23.15;3.85;;;;;;;;;;4975558;28;20358;-30
2021/12/15 01:21:05;;;;;;;20.23;4.07;;;;;;;;;;4975859;28;20062;-30
2021/12/15 01:23:32;;;;;;;22.52;4.90;;;;;;;;;;4975360;28;20367;-29
2021/12/15 01:26:04;;;;;;;30.45;5.25;;;;;;;;;;4975435;28;20478;-30
2021/12/15 01:28:30;;;;;;;12.57;4.38;;;;;;;;;;4976806;28;20451;-30
2021/12/15 01:30:58;;;;;;;18.90;4.57;;;;;;;;;;4979084;28;20046;-30
2021/12/15 01:33:25;;;;;;;31.00;4.32;;;;;;;;;;4979007;28;20026;-29
2021/12/15 01:35:52;;;;;;;21.35;4.13;;;;;;;;;;4979057;28;20443;-30
2021/12/15 01:38:20;;;;;;;14.52;4.53;;;;;;;;;;4979015;28;20366;-30
2021/12/15 01:40:47;;;;;;;15.55;4.60;;;;;;;;;;4979355;28;20434;-30
2021/12/15 01:43:22;;;;;;;26.90;5.47;;;;;;;;;;4978771;28;20051;-30
2021/12/15 01:48:36;;;;;;;17.35;4.43;;;;;;;;;;4979136;28;20042;-30
2021/12/15 01:51:03;;;;;;;12.43;4.07;;;;;;;;;;4979074;28;20090;-30
2021/12/15 01:53:30;;;;;;;26.80;7.75;;;;;;;;;;4978760;28;20045;-30
2021/12/15 01:55:56;;;;;;;21.58;3.88;;;;;;;;;;4978969;28;20030;-32
2021/12/15 01:58:22;;;;;;;13.63;4.03;;;;;;;;;;4978931;28;20045;-30
2021/12/15 02:00:59;;;;;;;23.65;5.60;;;;;;;;;;4978531;28;20058;-30
2021/12/15 02:03:26;;;;;;;20.05;3.63;;;;;;;;;;4978807;28;20050;-29
2021/12/15 02:05:54;;;;;;;19.58;4.03;;;;;;;;;;4978804;28;20067;-30
2021/12/15 02:08:21;;;;;;;18.63;4.10;;;;;;;;;;4978744;28;20377;-30
2021/12/15 02:10:48;;;;;;;20.02;4.85;;;;;;;;;;4978942;28;20093;-30
2021/12/15 02:13:17;;;;;;;14.10;5.20;;;;;;;;;;4961169;28;20492;-30
2021/12/15 02:15:48;;;;;;;21.58;4.50;;;;;;;;;;4978566;28;20391;-30
2021/12/15 02:18:16;;;;;;;19.00;4.00;;;;;;;;;;4978564;28;20048;-30
2021/12/15 02:20:44;;;;;;;14.40;4.47;;;;;;;;;;4961125;28;20050;-30
2021/12/15 02:23:12;;;;;;;25.73;4.43;;;;;;;;;;4978451;28;20046;-29
2021/12/15 02:25:39;;;;;;;14.75;2.97;;;;;;;;;;4961123;28;20026;-30
2021/12/15 02:28:07;;;;;;;19.67;4.35;;;;;;;;;;4978141;28;20038;-30
2021/12/15 02:33:41;;;;;;;15.32;3.80;;;;;;;;;;4977915;28;20097;-30
2021/12/15 02:38:41;;;;;;;11.82;3.35;;;;;;;;;;4977997;28;20041;-30
2021/12/15 02:41:13;;;;;;;22.85;4.15;;;;;;;;;;4977461;28;20031;-30
2021/12/15 02:43:40;;;;;;;16.10;3.50;;;;;;;;;;4977711;28;20102;-29
2021/12/15 02:46:07;;;;;;;21.35;3.80;;;;;;;;;;4977652;28;20061;-29
2021/12/15 02:48:34;;;;;;;18.20;4.00;;;;;;;;;;4978012;28;20035;-30
2021/12/15 02:51:00;;;;;;;16.58;3.38;;;;;;;;;;4977978;28;20026;-30
2021/12/15 02:53:26;;;;;;;12.75;4.53;;;;;;;;;;4977501;28;20065;-29
2021/12/15 02:55:53;;;;;;;22.33;3.97;;;;;;;;;;4977615;28;20048;-30
2021/12/15 02:58:21;;;;;;;13.27;3.50;;;;;;;;;;4977589;28;20030;-29
2021/12/15 03:01:03;;;;;;;13.52;5.35;;;;;;;;;;4977365;28;20030;-30
2021/12/15 03:06:24;;;;;;;14.25;3.78;;;;;;;;;;4977751;28;20066;-30
2021/12/15 03:09:02;;;;;;;21.63;4.32;;;;;;;;;;4962830;28;20041;-30
2021/12/15 03:16:59;;;;;;;12.77;3.25;;;;;;;;;;4977813;28;20130;-30
2021/12/15 03:19:25;;;;;;;15.40;4.28;;;;;;;;;;4977383;28;20530;-30
2021/12/15 03:21:51;;;;;;;17.58;4.20;;;;;;;;;;4976983;28;20030;-30
2021/12/15 03:24:20;;;;;;;13.57;3.58;;;;;;;;;;4977338;28;20105;-30
2021/12/15 03:26:57;;;;;;;21.40;3.83;;;;;;;;;;4977267;28;20114;-30
2021/12/15 03:35:17;;;;;;;16.83;4.47;;;;;;;;;;4976930;28;20035;-30
2021/12/15 03:37:47;;;;;;;20.10;4.07;;;;;;;;;;4976801;28;20042;-30
2021/12/15 03:40:38;;;;;;;18.30;3.97;;;;;;;;;;4976967;28;20101;-30
2021/12/15 03:43:07;;;;;;;17.17;4.35;;;;;;;;;;4977243;28;20023;-30
2021/12/15 03:45:35;;;;;;;13.32;3.78;;;;;;;;;;4976642;28;20470;-29
2021/12/15 03:48:04;;;;;;;12.85;3.60;;;;;;;;;;4959598;28;20046;-30
2021/12/15 03:50:31;;;;;;;11.25;3.70;;;;;;;;;;4976621;28;20500;-30
2021/12/15 03:52:57;;;;;;;10.05;2.95;;;;;;;;;;4959336;28;20143;-30
2021/12/15 03:55:25;;;;;;;14.95;4.15;;;;;;;;;;4976459;28;20035;-30
2021/12/15 03:57:52;;;;;;;18.35;4.90;;;;;;;;;;4959500;28;20110;-29
2021/12/15 04:00:18;;;;;;;11.25;3.88;;;;;;;;;;4976642;28;20472;-30
2021/12/15 04:02:45;;;;;;;20.48;3.85;;;;;;;;;;4976313;28;20014;-30
2021/12/15 04:05:13;;;;;;;8.30;2.83;;;;;;;;;;4976788;28;20183;-30
2021/12/15 04:07:39;;;;;;;20.90;4.10;;;;;;;;;;4976279;28;20019;-30
2021/12/15 04:10:10;;;;;;;11.77;3.60;;;;;;;;;;4976566;28;20370;-30
2021/12/15 04:12:37;;;;;;;10.80;2.75;;;;;;;;;;4976345;28;20027;-30
2021/12/15 04:15:20;;;;;;;13.07;3.42;;;;;;;;;;4959592;28;20047;-30
2021/12/15 04:17:47;;;;;;;22.13;2.78;;;;;;;;;;4976180;28;20058;-30
2021/12/15 04:20:15;;;;;;;13.13;2.75;;;;;;;;;;4975990;28;20058;-31
2021/12/15 04:22:41;;;;;;;14.25;3.70;;;;;;;;;;4975979;28;20086;-30
2021/12/15 04:25:12;;;;;;;13.38;3.20;;;;;;;;;;4976576;28;20346;-30
2021/12/15 04:27:39;;;;;;;21.88;5.32;;;;;;;;;;4976326;28;20026;-30
2021/12/15 04:30:07;;;;;;;21.10;3.60;;;;;;;;;;4976274;28;20058;-30
2021/12/15 04:32:38;;;;;;;13.60;3.05;;;;;;;;;;4975830;28;20089;-30
2021/12/15 04:35:05;;;;;;;15.75;2.85;;;;;;;;;;4976000;28;20402;-30
2021/12/15 04:37:31;;;;;;;10.45;3.47;;;;;;;;;;4958881;28;20359;-30
2021/12/15 04:39:57;;;;;;;9.40;5.30;;;;;;;;;;4976138;28;20365;-30
2021/12/15 04:42:25;;;;;;;11.27;3.67;;;;;;;;;;4975752;28;20085;-29
2021/12/15 04:44:55;;;;;;;16.08;3.53;;;;;;;;;;4958543;28;20137;-30
2021/12/15 04:47:21;;;;;;;7.70;3.00;;;;;;;;;;4975967;28;20070;-31
2021/12/15 04:49:50;;;;;;;12.57;3.30;;;;;;;;;;4975736;28;20370;-30
2021/12/15 04:52:18;;;;;;;9.07;2.90;;;;;;;;;;4975553;28;20390;-30
2021/12/15 04:54:44;;;;;;;14.00;3.60;;;;;;;;;;4975890;28;20026;-29
2021/12/15 04:57:11;;;;;;;16.73;3.67;;;;;;;;;;4976288;28;20034;-30
2021/12/15 04:59:38;;;;;;;12.10;2.88;;;;;;;;;;4975752;28;20042;-30
2021/12/15 05:02:05;;;;;;;9.00;3.90;;;;;;;;;;4975600;28;20023;-29
2021/12/15 05:04:32;;;;;;;8.73;3.10;;;;;;;;;;4978302;28;20358;-30
2021/12/15 05:06:58;;;;;;;11.95;3.03;;;;;;;;;;4962345;28;20097;-29
2021/12/15 05:09:24;;;;;;;11.77;4.45;;;;;;;;;;4979083;28;20562;-30
2021/12/15 05:11:51;;;;;;;11.38;3.80;;;;;;;;;;4979350;28;20039;-30
2021/12/15 05:14:19;;;;;;;8.27;2.88;;;;;;;;;;4979139;28;20045;-30
2021/12/15 05:16:46;;;;;;;10.63;3.60;;;;;;;;;;4979179;28;20092;-31
2021/12/15 05:19:12;;;;;;;14.60;2.60;;;;;;;;;;4979482;28;20055;-31
2021/12/15 05:21:39;;;;;;;6.78;3.03;;;;;;;;;;4979217;28;20035;-31
2021/12/15 05:24:21;;;;;;;11.88;3.10;;;;;;;;;;4979037;28;20030;-31
2021/12/15 05:26:47;;;;;;;12.13;4.25;;;;;;;;;;4979474;28;20023;-31
2021/12/15 05:29:14;;;;;;;6.80;2.95;;;;;;;;;;4979000;28;20023;-30
2021/12/15 05:31:40;;;;;;;9.23;3.00;;;;;;;;;;4978864;28;20129;-31
2021/12/15 05:34:07;;;;;;;8.52;3.00;;;;;;;;;;4978805;28;20026;-31
2021/12/15 05:36:33;;;;;;;12.35;3.65;;;;;;;;;;4979345;28;20058;-31
2021/12/15 05:38:59;;;;;;;9.43;2.90;;;;;;;;;;4979284;28;20030;-31
2021/12/15 05:41:26;;;;;;;19.35;3.97;;;;;;;;;;4962110;28;20474;-32
2021/12/15 05:43:53;;;;;;;13.80;3.35;;;;;;;;;;4961773;28;20073;-31
2021/12/15 05:46:19;;;;;;;9.82;4.40;;;;;;;;;;4978899;28;20045;-31
2021/12/15 05:48:46;;;;;;;8.43;2.10;;;;;;;;;;4978570;28;20026;-30
2021/12/15 05:51:12;;;;;;;20.45;6.63;;;;;;;;;;4978732;28;20343;-30
2021/12/15 05:53:38;;;;;;;12.98;3.20;;;;;;;;;;4978387;28;20027;-31
2021/12/15 05:56:06;;;;;;;12.70;3.92;;;;;;;;;;4978644;28;20101;-30
2021/12/15 05:58:32;;;;;;;9.55;3.55;;;;;;;;;;4978390;28;20042;-31
2021/12/15 06:00:59;;;;;;;12.57;2.97;;;;;;;;;;4978175;28;20082;-31
2021/12/15 06:03:25;;;;;;;8.75;3.00;;;;;;;;;;4978237;28;20454;-31
2021/12/15 06:05:52;;;;;;;20.48;5.07;;;;;;;;;;4978586;28;20031;-32
2021/12/15 06:08:18;;;;;;;9.20;4.05;;;;;;;;;;4978363;28;20147;-31
2021/12/15 06:10:44;;;;;;;8.95;3.10;;;;;;;;;;4978312;28;20027;-31
2021/12/15 06:13:12;;;;;;;17.20;4.15;;;;;;;;;;4978763;28;20458;-31
2021/12/15 06:15:39;;;;;;;14.02;3.60;;;;;;;;;;4976733;28;20093;-31
2021/12/15 06:18:07;;;;;;;17.17;3.55;;;;;;;;;;4978025;28;20058;-31
2021/12/15 06:20:35;;;;;;;11.30;4.15;;;;;;;;;;4978563;28;20023;-32
2021/12/15 06:23:06;;;;;;;16.75;4.70;;;;;;;;;;4978010;28;20034;-31
2021/12/15 06:25:32;;;;;;;6.70;2.78;;;;;;;;;;4978356;28;20033;-31
2021/12/15 06:27:59;;;;;;;17.23;3.28;;;;;;;;;;4978014;28;20023;-32
2021/12/15 06:30:25;;;;;;;20.00;3.78;;;;;;;;;;4960882;28;20026;-31
2021/12/15 06:32:51;;;;;;;16.92;3.40;;;;;;;;;;4978160;28;20031;-31
2021/12/15 06:35:18;;;;;;;15.20;3.28;;;;;;;;;;4977947;28;20026;-29
2021/12/15 06:37:44;;;;;;;17.17;3.95;;;;;;;;;;4977858;28;20105;-30
2021/12/15 06:40:11;;;;;;;15.32;3.03;;;;;;;;;;4978195;28;20034;-30
2021/12/15 06:42:38;;;;;;;17.95;3.20;;;;;;;;;;4977882;28;20034;-30
2021/12/15 06:45:05;;;;;;;21.55;3.90;;;;;;;;;;4977420;28;20114;-29
2021/12/15 06:57:15;;;;;;;17.60;3.50;;;;;;;;;;4977679;28;20018;-31
2021/12/15 06:58:35;;;;;;;16.52;5.20;;;;;;;;;;4977555;28;20081;-30
2021/12/15 07:01:03;;;;;;;12.50;3.03;;;;;;;;;;4977626;28;20114;-30
2021/12/15 07:03:29;;;;;;;15.05;3.08;;;;;;;;;;4977025;28;20027;-32
2021/12/15 07:05:56;;;;;;;16.48;3.83;;;;;;;;;;4977296;28;20035;-31
2021/12/15 07:08:23;;;;;;;16.25;3.63;;;;;;;;;;4959909;28;20027;-32
2021/12/15 07:10:50;;;;;;;12.73;3.20;;;;;;;;;;4977459;28;20034;-31
2021/12/15 07:13:17;;;;;;;11.20;3.13;;;;;;;;;;4977656;28;20038;-31
2021/12/15 07:15:45;;;;;;;15.98;3.17;;;;;;;;;;4976781;28;20041;-30
2021/12/15 07:18:13;;;;;;;21.08;3.83;;;;;;;;;;4977048;28;20035;-31
2021/12/15 07:20:48;;;;;;;23.48;3.42;;;;;;;;;;4959556;28;20041;-31
2021/12/15 07:23:16;;;;;;;20.20;3.22;;;;;;;;;;4976975;28;20077;-31
2021/12/15 07:25:43;;;;;;;19.55;4.22;;;;;;;;;;4976382;28;20116;-30
2021/12/15 07:28:10;;;;;;;35.38;3.80;;;;;;;;;;4976517;28;20050;-31
2021/12/15 07:30:38;;;;;;;30.80;5.00;;;;;;;;;;4976801;28;20476;-31
2021/12/15 07:33:05;;;;;;;22.02;3.17;;;;;;;;;;4976646;28;20030;-31
2021/12/15 07:35:32;;;;;;;34.10;6.82;;;;;;;;;;4976477;28;20041;-31
2021/12/15 07:37:58;;;;;;;23.35;4.97;;;;;;;;;;4976605;28;20034;-30
2021/12/15 07:40:25;;;;;;;20.52;3.60;;;;;;;;;;4959165;28;20047;-30
2021/12/15 07:43:05;;;;;;;31.70;3.63;;;;;;;;;;4958844;28;20023;-30
2021/12/15 07:45:32;;;;;;;25.27;3.08;;;;;;;;;;4976439;28;20046;-29
2021/12/15 07:48:01;;;;;;;31.23;3.90;;;;;;;;;;4959581;28;20468;-30
2021/12/15 07:50:28;;;;;;;23.88;4.50;;;;;;;;;;4976372;28;20423;-31
2021/12/15 07:52:55;;;;;;;37.90;5.38;;;;;;;;;;4975793;28;20066;-31
2021/12/15 07:55:22;;;;;;;18.35;5.40;;;;;;;;;;4958806;28;20095;-31
2021/12/15 07:57:49;;;;;;;24.73;4.47;;;;;;;;;;4976153;28;20053;-31
2021/12/15 08:00:16;;;;;;;26.65;4.13;;;;;;;;;;4975727;28;20034;-31
2021/12/15 08:02:43;;;;;;;25.98;4.07;;;;;;;;;;4958766;28;20472;-31
2021/12/15 08:05:10;;;;;;;25.98;4.20;;;;;;;;;;4975919;28;20062;-32
2021/12/15 08:07:36;;;;;;;14.82;3.85;;;;;;;;;;4976076;28;20466;-31
2021/12/15 08:10:06;;;;;;;15.63;3.75;;;;;;;;;;4958873;28;20039;-31
2021/12/15 08:12:32;;;;;;;29.08;4.28;;;;;;;;;;4975969;28;20374;-31
2021/12/15 08:14:59;;;;;;;23.45;3.65;;;;;;;;;;4975549;28;20038;-32
2021/12/15 08:17:25;;;;;;;21.83;5.10;;;;;;;;;;4975748;28;20509;-32
2021/12/15 08:19:51;;;;;;;20.13;4.32;;;;;;;;;;4974984;28;20085;-31
2021/12/15 08:22:18;;;;;;;21.83;3.30;;;;;;;;;;4975339;28;20034;-31
2021/12/15 08:24:44;;;;;;;22.40;3.22;;;;;;;;;;4975366;28;20023;-31
2021/12/15 08:27:11;;;;;;;18.13;3.80;;;;;;;;;;4975201;28;20019;-31
2021/12/15 08:29:37;;;;;;;20.98;4.30;;;;;;;;;;4975444;28;20422;-31
2021/12/15 08:32:04;;;;;;;24.25;5.40;;;;;;;;;;4958092;28;20118;-32
2021/12/15 08:34:30;;;;;;;24.60;3.33;;;;;;;;;;4958086;28;20181;-32
2021/12/15 08:36:57;;;;;;;30.10;7.10;;;;;;;;;;4975289;28;20049;-32
2021/12/15 08:39:23;;;;;;;23.67;3.83;;;;;;;;;;4957666;28;20042;-32
2021/12/15 08:41:50;;;;;;;30.45;4.03;;;;;;;;;;4975278;28;20394;-32
2021/12/15 08:44:16;;;;;;;38.80;5.72;;;;;;;;;;4975041;28;20041;-30
2021/12/15 08:46:44;;;;;;;31.65;7.32;;;;;;;;;;4975675;28;20023;-31
2021/12/15 08:49:14;;;;;;;25.60;4.32;;;;;;;;;;4958387;28;20101;-30
2021/12/15 08:51:41;;;;;;;19.57;3.47;;;;;;;;;;4975827;28;20030;-31
2021/12/15 08:54:09;;;;;;;25.85;4.22;;;;;;;;;;4975323;28;20041;-31
2021/12/15 08:56:36;;;;;;;22.40;4.35;;;;;;;;;;4975461;28;20031;-31
2021/12/15 08:59:04;;;;;;;32.67;5.18;;;;;;;;;;4975103;28;20110;-31
2021/12/15 09:01:30;;;;;;;37.88;4.30;;;;;;;;;;4975262;28;20387;-32
2021/12/15 09:03:57;;;;;;;19.27;4.28;;;;;;;;;;4975296;28;20023;-31
2021/12/15 09:06:24;;;;;;;25.77;3.90;;;;;;;;;;4975150;28;20054;-32
2021/12/15 09:08:51;;;;;;;32.10;5.07;;;;;;;;;;4975224;28;20019;-30
2021/12/15 09:11:19;;;;;;;25.90;3.90;;;;;;;;;;4974875;28;20035;-30
2021/12/15 09:13:47;;;;;;;29.10;3.78;;;;;;;;;;4941656;28;20027;-31
2021/12/15 09:16:14;;;;;;;47.30;7.18;;;;;;;;;;4957322;28;20035;-32
2021/12/15 09:18:42;;;;;;;22.60;5.15;;;;;;;;;;4974914;28;20458;-30
2021/12/15 09:21:14;;;;;;;40.00;5.60;;;;;;;;;;4975110;28;20118;-30
2021/12/15 09:23:40;;;;;;;38.40;4.05;;;;;;;;;;4974741;28;20031;-30
2021/12/15 09:26:07;;;;;;;25.30;4.28;;;;;;;;;;4974763;28;20030;-30
2021/12/15 09:28:34;;;;;;;38.20;5.45;;;;;;;;;;4974833;28;20034;-30
2021/12/15 09:31:02;;;;;;;23.38;4.47;;;;;;;;;;4974730;28;20039;-30
2021/12/15 09:33:33;;;;;;;22.42;4.20;;;;;;;;;;4974806;28;20023;-31
2021/12/15 09:36:00;;;;;;;28.52;5.00;;;;;;;;;;4975073;28;20394;-30
2021/12/15 09:38:27;;;;;;;36.22;6.50;;;;;;;;;;4974608;28;20027;-30
2021/12/15 09:40:55;;;;;;;26.65;4.15;;;;;;;;;;4957192;28;20035;-31
2021/12/15 09:43:22;;;;;;;22.08;4.20;;;;;;;;;;4957346;28;20031;-31
2021/12/15 09:45:55;;;;;;;21.35;6.50;;;;;;;;;;4974427;28;20502;-32
2021/12/15 10:04:30;;;;;;;23.58;6.05;;;;;;;;;;4978290;28;20026;-32
2021/12/15 10:17:22;;;;;;;37.17;4.55;;;;;;;;;;4977899;28;20042;-31
2021/12/15 10:20:29;;;;;;;25.55;4.38;;;;;;;;;;4977810;28;20117;-31
2021/12/15 10:23:03;;;;;;;31.25;4.97;;;;;;;;;;4978047;28;20026;-31
2021/12/15 10:25:31;;;;;;;24.17;4.57;;;;;;;;;;4977822;28;20034;-31
2021/12/15 10:28:03;;;;;;;32.28;5.35;;;;;;;;;;4960618;28;20054;-31
2021/12/15 10:30:44;;;;;;;27.33;6.00;;;;;;;;;;4977562;28;20058;-31
2021/12/15 10:33:13;;;;;;;30.10;5.30;;;;;;;;;;4977852;28;20386;-32
2021/12/15 10:35:44;;;;;;;25.10;4.47;;;;;;;;;;4977541;28;20026;-30
2021/12/15 10:38:10;;;;;;;;;;;;;;;;;;4977666;28;20497;-31
2021/12/15 10:40:41;;;;;;;23.98;4.55;;;;;;;;;;4978092;28;19910;-31
2021/12/15 10:43:07;;;;;;;46.17;5.95;;;;;;;;;;4977295;28;20022;-31
2021/12/15 10:45:35;;;;;;;28.73;6.60;;;;;;;;;;4977267;28;20109;-31
2021/12/15 10:48:02;;;;;;;28.20;4.47;;;;;;;;;;4977363;28;20340;-31
2021/12/15 10:50:28;;;;;;;22.27;5.30;;;;;;;;;;4977551;28;20050;-31
2021/12/15 10:52:54;;;;;;;35.17;4.28;;;;;;;;;;4977504;28;20023;-31
2021/12/15 10:55:27;;;;;;;46.63;5.13;;;;;;;;;;4976957;28;20018;-31
2021/12/15 10:57:54;;;;;;;29.23;6.32;;;;;;;;;;4977458;28;20022;-31
2021/12/15 11:00:20;;;;;;;22.92;4.28;;;;;;;;;;4976889;28;20050;-31
2021/12/15 11:02:47;;;;;;;34.97;4.38;;;;;;;;;;4976456;28;20113;-30
2021/12/15 11:05:16;;;;;;;28.92;5.80;;;;;;;;;;4976676;28;20041;-30
2021/12/15 11:07:56;;;;;;;35.92;6.45;;;;;;;;;;4976704;28;20153;-30
2021/12/15 11:10:27;;;;;;;23.88;5.13;;;;;;;;;;4977459;28;20041;-30
2021/12/15 11:12:57;;;;;;;41.65;4.97;;;;;;;;;;4976744;28;20490;-30
2021/12/15 11:15:25;;;;;;;31.40;8.23;;;;;;;;;;4977242;28;20035;-31
2021/12/15 11:18:00;;;;;;;28.85;4.30;;;;;;;;;;4977167;28;20026;-31
2021/12/15 11:20:37;;;;;;;27.95;5.43;;;;;;;;;;4959933;28;20031;-31
2021/12/15 11:23:10;;;;;;;26.17;5.22;;;;;;;;;;4976886;28;20401;-31
2021/12/15 11:25:46;;;;;;;30.48;4.85;;;;;;;;;;4977005;28;20031;-31
2021/12/15 11:28:15;;;;;;;35.13;4.60;;;;;;;;;;4959778;28;20121;-31
2021/12/15 11:30:47;;;;;;;26.65;4.88;;;;;;;;;;4976886;28;20082;-32
2021/12/15 11:33:17;;;;;;;36.53;5.85;;;;;;;;;;4976678;28;20531;-31
2021/12/15 11:35:49;;;;;;;27.43;5.67;;;;;;;;;;4959788;28;20031;-31
2021/12/15 11:38:18;;;;;;;31.23;5.20;;;;;;;;;;4977034;28;20114;-32
2021/12/15 11:40:46;;;;;;;26.60;5.25;;;;;;;;;;4959546;28;20038;-31
2021/12/15 11:43:31;;;;;;;32.17;5.63;;;;;;;;;;4976712;28;20042;-32
2021/12/15 11:45:58;;;;;;;28.00;5.13;;;;;;;;;;4976535;28;20097;-32
2021/12/15 11:48:27;;;;;;;32.90;5.10;;;;;;;;;;4976945;28;20462;-32
2021/12/15 11:50:55;;;;;;;30.70;6.82;;;;;;;;;;4976558;28;20039;-32
2021/12/15 11:53:38;;;;;;;31.02;5.70;;;;;;;;;;4976418;28;20113;-31
2021/12/15 11:56:13;;;;;;;31.77;5.80;;;;;;;;;;4976419;28;20034;-32
2021/12/15 11:58:40;;;;;;;26.73;5.07;;;;;;;;;;4976609;28;20027;-31
2021/12/15 12:01:08;;;;;;;24.73;4.80;;;;;;;;;;4959090;28;20481;-32
2021/12/15 12:03:35;;;;;;;30.30;4.90;;;;;;;;;;4976043;28;20031;-32
2021/12/15 12:06:02;;;;;;;36.30;5.45;;;;;;;;;;4976007;28;20169;-32
2021/12/15 12:08:28;;;;;;;37.00;5.93;;;;;;;;;;4976103;28;20102;-32
2021/12/15 12:10:56;;;;;;;23.73;4.95;;;;;;;;;;4976213;28;20031;-31
2021/12/15 12:13:27;;;;;;;40.35;5.47;;;;;;;;;;4975571;28;20065;-32
2021/12/15 12:16:01;;;;;;;23.88;4.38;;;;;;;;;;4975809;28;20035;-32
2021/12/15 12:18:30;;;;;;;43.30;6.65;;;;;;;;;;4958691;28;20466;-32
2021/12/15 12:20:58;;;;;;;57.03;7.85;;;;;;;;;;4975657;28;20362;-31
2021/12/15 12:23:27;;;;;;;37.08;6.05;;;;;;;;;;4958595;28;20035;-30
2021/12/15 12:25:54;;;;;;;38.78;7.20;;;;;;;;;;4975681;28;20038;-30
2021/12/15 12:28:24;;;;;;;51.22;7.80;;;;;;;;;;4958444;28;20027;-30
2021/12/15 12:30:54;;;;;;;39.85;5.38;;;;;;;;;;4975828;28;20106;-30
2021/12/15 12:33:23;;;;;;;37.63;5.30;;;;;;;;;;4975456;28;20031;-31
2021/12/15 12:35:51;;;;;;;46.00;8.48;;;;;;;;;;4958292;28;20142;-30
2021/12/15 12:38:19;;;;;;;39.08;8.23;;;;;;;;;;4975294;28;20031;-30
2021/12/15 12:40:52;;;;;;;24.23;5.97;;;;;;;;;;4975001;28;20023;-31
2021/12/15 12:43:21;;;;;;;32.47;5.57;;;;;;;;;;4975454;28;20443;-31
2021/12/15 12:46:04;;;;;;;37.03;5.93;;;;;;;;;;4974951;28;20497;-30
2021/12/15 12:59:55;;;;;;;27.88;5.75;;;;;;;;;;4915818;29;20095;-31
2021/12/15 13:02:41;;;;;;;38.53;8.10;;;;;;;;;;4962557;28;20043;-32
2021/12/15 13:05:25;;;;;;;33.88;5.05;;;;;;;;;;4974833;28;20054;-32
2021/12/15 13:07:54;;;;;;;30.65;5.13;;;;;;;;;;4974942;28;20390;-32
2021/12/15 13:10:23;;;;;;;38.15;6.07;;;;;;;;;;4941949;28;20450;-31
2021/12/15 13:13:11;;;;;;;26.40;5.70;;;;;;;;;;4974553;28;20214;-31
2021/12/15 13:15:38;;;;;;;33.15;7.05;;;;;;;;;;4975514;28;20031;-31
2021/12/15 13:18:11;;;;;;;35.05;5.80;;;;;;;;;;4975176;28;20097;-31
2021/12/15 13:20:38;;;;;;;46.65;6.65;;;;;;;;;;4974855;28;20031;-31
2021/12/15 13:28:48;;;;;;;43.17;7.07;;;;;;;;;;4978716;28;20473;-31
2021/12/15 13:31:22;;;;;;;42.58;5.82;;;;;;;;;;4978736;28;20033;-31
2021/12/15 13:33:53;;;;;;;37.85;7.00;;;;;;;;;;4978337;28;20086;-31
2021/12/15 13:36:20;;;;;;;50.55;8.48;;;;;;;;;;4978276;28;20050;-31
2021/12/15 13:38:50;;;;;;;43.58;5.95;;;;;;;;;;4978349;28;20042;-42
2021/12/15 13:44:06;;;;;;;53.72;8.45;;;;;;;;;;4978172;28;20456;-31
2021/12/15 13:46:34;;;;;;;45.63;7.63;;;;;;;;;;4978810;28;20359;-31
2021/12/15 13:49:06;;;;;;;38.58;8.05;;;;;;;;;;4978480;28;20094;-31
2021/12/15 13:51:50;;;;;;;36.75;7.03;;;;;;;;;;4978181;28;20110;-31
2021/12/15 13:54:23;;;;;;;52.90;7.95;;;;;;;;;;4960988;28;20106;-32
2021/12/15 13:56:53;;;;;;;44.65;6.80;;;;;;;;;;4978275;28;20090;-31
2021/12/15 13:59:30;;;;;;;39.72;5.53;;;;;;;;;;4978203;28;20030;-32
2021/12/15 14:02:15;;;;;;;30.40;5.32;;;;;;;;;;4977823;28;20427;-32
2021/12/15 14:04:45;;;;;;;38.65;6.55;;;;;;;;;;4961304;28;20451;-31
2021/12/15 14:07:29;;;;;;;46.30;8.73;;;;;;;;;;4978262;28;20030;-31
2021/12/15 14:09:56;;;;;;;38.15;5.43;;;;;;;;;;4978215;28;20336;-32
2021/12/15 14:12:43;;;;;;;46.83;7.90;;;;;;;;;;4960969;28;20505;-31
2021/12/15 14:15:09;;;;;;;57.10;8.02;;;;;;;;;;4961996;28;20117;-30
2021/12/15 14:17:35;;;;;;;53.72;8.80;;;;;;;;;;4977675;28;20050;-32
2021/12/15 14:20:09;;;;;;;50.55;7.20;;;;;;;;;;4977617;28;20044;-31
2021/12/15 14:22:35;;;;;;;36.78;6.45;;;;;;;;;;4978079;28;20065;-31
2021/12/15 14:25:03;;;;;;;43.20;6.88;;;;;;;;;;4977304;28;20042;-31
2021/12/15 14:27:30;;;;;;;57.20;8.18;;;;;;;;;;4977550;28;20102;-30
2021/12/15 14:29:56;;;;;;;58.25;7.35;;;;;;;;;;4977473;28;20046;-31
2021/12/15 14:32:26;;;;;;;77.60;10.55;;;;;;;;;;4977331;28;20046;-32
2021/12/15 14:34:53;;;;;;;65.75;9.50;;;;;;;;;;4978193;28;20038;-31
2021/12/15 14:37:22;;;;;;;50.67;6.75;;;;;;;;;;4976393;28;20041;-30
2021/12/15 14:39:49;;;;;;;45.60;8.07;;;;;;;;;;4960642;28;20027;-30
2021/12/15 14:42:18;;;;;;;42.22;6.57;;;;;;;;;;4977105;28;20030;-29
2021/12/15 14:44:48;;;;;;;34.70;5.13;;;;;;;;;;4977369;28;20058;-30
2021/12/15 14:47:16;;;;;;;58.10;6.47;;;;;;;;;;4977344;28;20030;-30
2021/12/15 14:49:45;;;;;;;44.38;9.32;;;;;;;;;;4977345;28;20031;-31
2021/12/15 14:52:18;;;;;;;43.17;7.45;;;;;;;;;;4977151;28;20093;-31
2021/12/15 14:54:45;;;;;;;83.40;10.18;;;;;;;;;;4977227;28;20093;-31
2021/12/15 14:57:13;;;;;;;52.58;8.98;;;;;;;;;;4977254;28;20106;-32
2021/12/15 14:59:44;;;;;;;52.08;8.27;;;;;;;;;;4960255;28;20030;-30
2021/12/15 15:02:11;;;;;;;;;;;;;;;;;;4977531;28;20027;-30
2021/12/15 15:04:38;;;;;;;47.20;7.18;;;;;;;;;;4977225;28;19953;-31
2021/12/15 15:07:07;;;;;;;43.28;6.10;;;;;;;;;;4977136;28;20046;-30
2021/12/15 15:09:37;;;;;;;46.22;6.80;;;;;;;;;;4977015;28;20034;-30
2021/12/15 15:12:12;;;;;;;37.53;5.75;;;;;;;;;;4977284;28;20031;-31
2021/12/15 15:14:42;;;;;;;41.85;6.55;;;;;;;;;;4977036;28;20022;-31
2021/12/15 15:17:11;;;;;;;31.05;5.05;;;;;;;;;;4976914;28;20501;-30
2021/12/15 15:19:52;;;;;;;48.20;7.03;;;;;;;;;;4977139;28;20066;-31
2021/12/15 15:22:20;;;;;;;42.72;6.97;;;;;;;;;;4976774;28;20023;-31
2021/12/15 15:24:47;;;;;;;49.05;6.03;;;;;;;;;;4976962;28;20015;-31
2021/12/15 15:27:15;;;;;;;40.03;6.05;;;;;;;;;;4977158;28;20370;-31
2021/12/15 15:29:43;;;;;;;37.95;6.15;;;;;;;;;;4976848;28;20018;-31
2021/12/15 15:32:11;;;;;;;39.83;8.40;;;;;;;;;;4976941;28;20469;-31
2021/12/15 15:34:38;;;;;;;48.42;7.32;;;;;;;;;;4976745;28;20027;-31
2021/12/15 15:37:12;;;;;;;47.88;6.47;;;;;;;;;;4976517;28;20023;-31
2021/12/15 15:39:38;;;;;;;46.92;8.48;;;;;;;;;;4976543;28;20035;-32
2021/12/15 15:42:05;;;;;;;48.70;7.28;;;;;;;;;;4959215;28;20114;-32
2021/12/15 15:44:35;;;;;;;55.47;7.32;;;;;;;;;;4976499;28;20047;-32
2021/12/15 15:47:03;;;;;;;33.78;5.25;;;;;;;;;;4976922;28;20033;-31
2021/12/15 15:49:29;;;;;;;43.88;7.05;;;;;;;;;;4976566;28;20030;-31
2021/12/15 15:51:57;;;;;;;35.35;6.07;;;;;;;;;;4976567;28;20035;-31
2021/12/15 15:54:28;;;;;;;33.35;6.50;;;;;;;;;;4976260;28;20041;-30
2021/12/15 15:56:55;;;;;;;37.63;6.28;;;;;;;;;;4976286;28;20029;-32
2021/12/15 15:59:23;;;;;;;39.17;8.57;;;;;;;;;;4976785;28;20391;-32
2021/12/15 16:01:50;;;;;;;34.38;6.35;;;;;;;;;;4975951;28;20458;-32
2021/12/15 16:04:17;;;;;;;38.88;5.55;;;;;;;;;;4976379;28;20027;-32
2021/12/15 16:06:44;;;;;;;36.38;7.03;;;;;;;;;;4976369;28;20104;-32